Time;durP1;ratioP1;P1;durP2;ratioP2;P2;SDS_P1;SDS_P2;PMS_P1;PMS_P2;Temp;Humidity;BMP_temperature;BMP_pressure;BME280_temperature;BME280_humidity;BME280_pressure;Samples;Min_cycle;Max_cycle;Signal;HPM_P1;HPM_P2
2021/12/22 00:00:26;;;;;;;18.58;11.32;;;;;;;-1.08;100.00;102715.44;4757497;29;20236;-85
2021/12/22 00:02:52;;;;;;;17.48;11.90;;;;;;;-1.21;100.00;102713.16;4786259;30;20178;-83
2021/12/22 00:05:28;;;;;;;14.70;11.40;;;;;;;-1.26;100.00;102708.59;4771627;30;20185;-85
2021/12/22 00:07:54;;;;;;;18.55;11.85;;;;;;;-1.33;100.00;102711.81;4785438;30;20229;-83
2021/12/22 00:10:21;;;;;;;19.17;11.77;;;;;;;-1.45;100.00;102699.03;4785641;29;20206;-82
2021/12/22 00:12:47;;;;;;;16.10;11.88;;;;;;;-1.49;100.00;102693.59;4772840;30;20212;-83
2021/12/22 00:15:13;;;;;;;17.95;12.23;;;;;;;-1.50;100.00;102690.09;4772046;30;20190;-82
2021/12/22 00:17:39;;;;;;;16.88;11.90;;;;;;;-1.50;100.00;102707.59;4770566;30;20174;-83
2021/12/22 00:20:06;;;;;;;19.20;12.38;;;;;;;-1.53;100.00;102708.38;4785864;29;20821;-83
2021/12/22 00:22:32;;;;;;;20.15;11.75;;;;;;;-1.52;100.00;102711.88;4770565;30;20216;-83
2021/12/22 00:24:57;;;;;;;18.00;11.82;;;;;;;-1.58;100.00;102699.38;4771895;30;20672;-83
2021/12/22 00:27:23;;;;;;;18.90;11.80;;;;;;;-1.62;100.00;102701.81;4771422;30;20644;-83
2021/12/22 00:29:50;;;;;;;15.82;11.52;;;;;;;-1.69;100.00;102705.91;4770060;30;20198;-83
2021/12/22 00:32:17;;;;;;;14.68;11.55;;;;;;;-1.64;100.00;102706.09;4769548;30;20174;-83
2021/12/22 00:34:50;;;;;;;17.17;12.40;;;;;;;-1.73;100.00;102704.91;4767337;30;20222;-83
2021/12/22 00:37:28;;;;;;;19.83;12.85;;;;;;;-1.74;100.00;102713.59;4767236;30;20240;-83
2021/12/22 00:39:54;;;;;;;17.30;12.55;;;;;;;-1.80;100.00;102708.09;4768930;30;20221;-83
2021/12/22 00:42:20;;;;;;;19.20;13.18;;;;;;;-1.83;100.00;102715.84;4782923;30;20185;-83
2021/12/22 00:44:50;;;;;;;20.27;13.75;;;;;;;-1.81;100.00;102715.94;4767864;30;20607;-83
2021/12/22 00:47:17;;;;;;;18.23;13.30;;;;;;;-1.79;100.00;102699.38;4767539;30;20189;-83
2021/12/22 00:49:42;;;;;;;21.63;12.93;;;;;;;-1.82;100.00;102704.50;4782078;29;20197;-83
2021/12/22 00:52:08;;;;;;;24.58;13.35;;;;;;;-1.82;100.00;102711.50;4768727;30;20511;-82
2021/12/22 00:54:34;;;;;;;16.63;12.73;;;;;;;-1.80;100.00;102710.72;4767874;30;20177;-83
2021/12/22 00:57:05;;;;;;;25.42;16.95;;;;;;;-1.93;100.00;102713.66;4767034;30;20213;-83
2021/12/22 00:59:33;;;;;;;19.58;14.20;;;;;;;-1.90;100.00;102703.28;4781986;29;20207;-82
2021/12/22 01:02:00;;;;;;;21.13;13.55;;;;;;;-1.85;100.00;102708.75;4788192;29;20184;-82
2021/12/22 01:04:26;;;;;;;18.83;12.98;;;;;;;-1.90;100.00;102701.56;4771703;29;20215;-82
2021/12/22 01:06:51;;;;;;;19.75;13.98;;;;;;;-1.91;100.00;102710.25;4786675;29;20272;-81
2021/12/22 01:09:16;;;;;;;20.98;12.80;;;;;;;-1.95;100.00;102715.31;4786371;29;20324;-82
2021/12/22 01:11:42;;;;;;;22.88;13.65;;;;;;;-1.98;100.00;102712.56;4787887;29;20181;-81
2021/12/22 01:14:07;;;;;;;18.13;13.77;;;;;;;-2.02;100.00;102713.25;4787100;29;20196;-82
2021/12/22 01:16:33;;;;;;;18.80;13.88;;;;;;;-2.01;100.00;102709.78;4786201;29;20669;-82
2021/12/22 01:19:02;;;;;;;19.40;13.57;;;;;;;-2.02;100.00;102698.38;4785759;29;20212;-82
2021/12/22 01:24:14;;;;;;;46.72;25.20;;;;;;;-2.01;100.00;102712.41;4815768;29;20184;-83
2021/12/22 01:26:45;;;;;;;35.08;22.77;;;;;;;-2.05;100.00;102715.75;4784995;29;20350;-82
2021/12/22 01:29:11;;;;;;;35.58;23.02;;;;;;;-2.04;100.00;102714.91;4785203;29;20209;-83
2021/12/22 01:31:39;;;;;;;30.50;20.20;;;;;;;-2.09;100.00;102715.59;4786525;29;20261;-82
2021/12/22 01:34:04;;;;;;;24.95;16.88;;;;;;;-2.11;100.00;102706.75;4799984;29;20184;-83
2021/12/22 01:36:30;;;;;;;27.23;17.10;;;;;;;-2.17;100.00;102717.00;4786392;30;20185;-82
2021/12/22 01:38:55;;;;;;;25.67;15.25;;;;;;;-2.18;100.00;102709.06;4785741;29;20291;-82
2021/12/22 01:41:21;;;;;;;24.65;14.57;;;;;;;-2.20;100.00;102709.00;4785038;29;20219;-82
2021/12/22 01:43:48;;;;;;;21.73;15.40;;;;;;;-2.23;100.00;102708.88;4786847;29;20183;-81
2021/12/22 01:49:14;;;;;;;17.60;12.52;;;;;;;-2.24;100.00;102714.03;4788785;29;20251;-83
2021/12/22 01:52:03;;;;;;;19.52;13.55;;;;;;;-2.27;100.00;102712.19;4803984;29;20181;-81
2021/12/22 01:54:33;;;;;;;16.20;12.23;;;;;;;-2.29;100.00;102704.22;4789056;30;20170;-82
2021/12/22 01:57:02;;;;;;;23.65;13.70;;;;;;;-2.31;100.00;102705.88;4803849;29;20272;-81
2021/12/22 01:59:28;;;;;;;19.67;13.57;;;;;;;-2.24;100.00;102701.81;4789676;29;20718;-81
2021/12/22 02:01:59;;;;;;;20.77;15.02;;;;;;;-2.24;100.00;102711.41;4788960;29;20184;-81
2021/12/22 02:04:25;;;;;;;21.17;14.73;;;;;;;-2.29;100.00;102709.47;4789724;29;20196;-80
2021/12/22 02:06:50;;;;;;;25.10;14.60;;;;;;;-2.24;100.00;102701.81;4790666;29;20184;-80
2021/12/22 02:10:04;;;;;;;24.38;15.43;;;;;;;-2.32;100.00;102704.09;4791786;29;20204;-80
2021/12/22 02:12:09;;;;;;;17.63;11.80;;;;;;;-2.28;100.00;102711.25;4805045;29;20189;-80
2021/12/22 02:14:34;;;;;;;18.05;12.98;;;;;;;-2.26;100.00;102707.81;4805282;29;20279;-80
2021/12/22 02:17:02;;;;;;;17.25;11.73;;;;;;;-2.30;100.00;102710.31;4791610;30;20220;-80
2021/12/22 02:19:27;;;;;;;19.70;12.75;;;;;;;-2.23;100.00;102701.00;4792635;29;20320;-80
2021/12/22 02:21:57;;;;;;;18.63;12.27;;;;;;;-2.26;100.00;102698.22;4790142;30;20683;-80
2021/12/22 02:24:22;;;;;;;19.55;11.85;;;;;;;-2.25;100.00;102704.34;4805283;29;20177;-80
2021/12/22 02:26:59;;;;;;;19.02;11.60;;;;;;;-2.33;100.00;102694.41;4788960;30;20177;-80
2021/12/22 02:29:34;;;;;;;19.70;12.10;;;;;;;-2.33;100.00;102697.03;4788565;29;20200;-80
2021/12/22 02:32:07;;;;;;;14.13;10.73;;;;;;;-2.31;100.00;102687.50;4788193;30;20545;-80
2021/12/22 02:34:40;;;;;;;18.83;11.95;;;;;;;-2.26;100.00;102687.72;4790073;30;20184;-80
2021/12/22 02:37:11;;;;;;;15.98;11.07;;;;;;;-2.20;100.00;102684.47;4789827;30;20257;-80
2021/12/22 02:39:37;;;;;;;15.95;11.20;;;;;;;-2.20;100.00;102689.72;4791283;29;20654;-79
2021/12/22 02:42:03;;;;;;;18.80;10.60;;;;;;;-2.18;99.81;102691.56;4790461;30;20169;-80
2021/12/22 02:44:28;;;;;;;17.17;10.65;;;;;;;-2.20;99.39;102700.22;4790929;29;20640;-79
2021/12/22 02:46:53;;;;;;;14.10;10.50;;;;;;;-2.19;99.22;102702.00;4789542;30;20232;-80
2021/12/22 02:49:19;;;;;;;11.75;9.07;;;;;;;-2.21;98.68;102695.78;4804573;29;20197;-80
2021/12/22 02:51:44;;;;;;;15.27;10.30;;;;;;;-2.21;98.38;102686.16;4790972;29;20570;-80
2021/12/22 02:54:17;;;;;;;15.95;11.75;;;;;;;-2.29;98.63;102690.22;4784674;29;20204;-81
2021/12/22 03:02:30;;;;;;;13.63;10.13;;;;;;;-2.29;98.58;102674.47;4802220;29;20279;-80
2021/12/22 03:04:29;;;;;;;14.00;10.10;;;;;;;-2.33;98.32;102678.66;4787226;29;20231;-80
2021/12/22 03:07:00;;;;;;;19.50;10.73;;;;;;;-2.34;98.62;102670.72;4802152;29;20242;-81
2021/12/22 03:09:29;;;;;;;13.20;10.85;;;;;;;-2.32;97.74;102675.22;4788157;29;20185;-81
2021/12/22 03:11:58;;;;;;;16.08;10.88;;;;;;;-2.35;97.84;102668.94;4788090;29;20223;-80
2021/12/22 03:14:24;;;;;;;16.88;10.48;;;;;;;-2.26;97.77;102689.44;4787991;29;20211;-80
2021/12/22 03:16:50;;;;;;;14.32;10.52;;;;;;;-2.16;97.81;102696.91;4788955;29;20624;-80
2021/12/22 03:19:19;;;;;;;17.70;11.73;;;;;;;-2.29;97.58;102692.84;4817269;29;20217;-80
2021/12/22 03:21:47;;;;;;;17.35;10.95;;;;;;;-2.31;97.63;102681.38;4788588;29;20176;-80
2021/12/22 03:24:13;;;;;;;14.45;10.13;;;;;;;-2.26;97.79;102685.09;4816711;29;20803;-79
2021/12/22 03:26:42;;;;;;;15.70;10.75;;;;;;;-2.21;98.07;102678.28;4788174;30;20226;-79
2021/12/22 03:29:18;;;;;;;14.93;10.98;;;;;;;-2.21;98.09;102691.41;4786752;29;20276;-80
2021/12/22 03:31:46;;;;;;;17.20;10.40;;;;;;;-2.21;97.45;102699.28;4786654;30;20197;-80
2021/12/22 03:34:13;;;;;;;15.70;10.55;;;;;;;-2.15;97.69;102691.69;4788274;29;20604;-80
2021/12/22 03:36:41;;;;;;;14.70;10.07;;;;;;;-2.15;98.06;102681.19;4803665;29;20237;-79
2021/12/22 03:39:07;;;;;;;15.20;10.93;;;;;;;-2.13;97.88;102682.16;4789370;29;20221;-79
2021/12/22 03:41:35;;;;;;;15.88;10.90;;;;;;;-2.12;97.36;102675.16;4790328;30;20520;-80
2021/12/22 03:44:01;;;;;;;14.25;10.10;;;;;;;-2.12;97.31;102678.72;4788144;29;20304;-80
2021/12/22 03:46:26;;;;;;;17.58;10.05;;;;;;;-2.13;97.50;102689.16;4788007;30;20268;-80
2021/12/22 03:48:52;;;;;;;16.70;10.60;;;;;;;-2.16;97.22;102687.28;4787117;29;20193;-80
2021/12/22 03:51:17;;;;;;;15.50;10.70;;;;;;;-2.10;97.68;102687.56;4788246;30;20174;-80
2021/12/22 03:53:42;;;;;;;13.15;9.20;;;;;;;-2.08;97.67;102690.22;4789637;30;20952;-80
2021/12/22 03:56:08;;;;;;;16.45;10.18;;;;;;;-2.13;96.93;102683.91;4803701;29;20250;-80
2021/12/22 03:58:33;;;;;;;16.02;10.45;;;;;;;-2.15;97.01;102693.44;4789097;30;20287;-80
2021/12/22 04:00:59;;;;;;;13.73;9.77;;;;;;;-2.18;97.07;102688.06;4789554;29;20556;-81
2021/12/22 04:03:29;;;;;;;17.50;10.20;;;;;;;-2.17;97.13;102687.22;4788233;30;20197;-80
2021/12/22 04:05:55;;;;;;;15.68;9.43;;;;;;;-2.15;97.10;102681.19;4787722;30;20183;-80
2021/12/22 04:08:21;;;;;;;18.83;10.30;;;;;;;-2.08;96.22;102680.66;4786770;29;20256;-80
2021/12/22 04:10:48;;;;;;;13.65;9.90;;;;;;;-2.17;96.59;102680.22;4788003;29;20212;-80
2021/12/22 04:13:14;;;;;;;13.90;10.13;;;;;;;-2.15;96.12;102683.81;4786294;29;20698;-79
2021/12/22 04:15:40;;;;;;;15.25;9.80;;;;;;;-2.08;96.45;102679.72;4786635;29;20534;-80
2021/12/22 04:18:06;;;;;;;13.77;9.82;;;;;;;-2.11;96.13;102675.25;4800834;29;20354;-80
2021/12/22 04:20:31;;;;;;;13.10;8.95;;;;;;;-2.07;96.43;102677.19;4787005;29;20212;-80
2021/12/22 04:22:59;;;;;;;14.32;9.35;;;;;;;-2.03;95.65;102661.53;4787269;29;20184;-82
2021/12/22 04:25:25;;;;;;;17.10;9.80;;;;;;;-2.12;96.27;102664.66;4801164;29;20199;-80
2021/12/22 04:27:55;;;;;;;15.40;9.55;;;;;;;-2.08;96.24;102654.41;4785988;29;20195;-80
2021/12/22 04:30:21;;;;;;;12.45;9.27;;;;;;;-2.07;95.79;102657.91;4785631;29;20572;-80
2021/12/22 04:32:47;;;;;;;13.35;9.68;;;;;;;-2.09;96.64;102657.84;4785802;29;20189;-80
2021/12/22 04:35:12;;;;;;;13.55;9.93;;;;;;;-2.08;96.00;102659.66;4786631;29;20521;-80
2021/12/22 04:37:38;;;;;;;16.60;10.20;;;;;;;-2.09;96.06;102659.56;4786852;29;20197;-81
2021/12/22 04:40:04;;;;;;;18.13;10.25;;;;;;;-2.09;96.24;102667.44;4785627;29;20320;-80
2021/12/22 04:42:30;;;;;;;13.35;9.32;;;;;;;-2.10;96.09;102647.25;4785673;30;20181;-81
2021/12/22 04:44:57;;;;;;;15.52;9.82;;;;;;;-2.04;96.52;102651.88;4785781;30;20713;-80
2021/12/22 04:47:23;;;;;;;14.18;9.70;;;;;;;-2.05;96.09;102645.75;4785681;29;20677;-81
2021/12/22 04:49:48;;;;;;;10.80;9.43;;;;;;;-2.04;96.19;102646.63;4786868;29;20201;-81
2021/12/22 04:52:20;;;;;;;12.52;9.60;;;;;;;-2.03;95.94;102653.66;4785563;30;20173;-80
2021/12/22 04:57:11;;;;;;;15.20;9.27;;;;;;;-1.96;96.31;102655.75;4786932;29;20334;-81
2021/12/22 04:59:36;;;;;;;13.48;9.77;;;;;;;-1.93;95.76;102656.75;4785107;30;20291;-82
2021/12/22 05:02:02;;;;;;;15.52;9.82;;;;;;;-1.99;96.07;102655.59;4785306;30;20192;-81
2021/12/22 05:04:27;;;;;;;12.73;9.93;;;;;;;-2.01;96.00;102652.00;4785693;29;20231;-81
2021/12/22 05:06:53;;;;;;;13.38;10.13;;;;;;;-2.02;95.91;102639.72;4790699;29;20271;-84
2021/12/22 05:09:18;;;;;;;15.27;9.68;;;;;;;-1.95;95.97;102640.03;4833595;29;20198;-81
2021/12/22 05:11:44;;;;;;;13.93;9.30;;;;;;;-1.93;96.09;102640.09;4818408;29;20683;-81
2021/12/22 05:14:10;;;;;;;16.85;10.35;;;;;;;-2.00;95.70;102644.19;4804584;29;20187;-82
2021/12/22 05:16:44;;;;;;;14.93;10.05;;;;;;;-2.01;95.94;102647.66;4818559;29;20210;-82
2021/12/22 05:19:14;;;;;;;15.32;10.15;;;;;;;-2.06;95.25;102643.94;4804180;29;20299;-82
2021/12/22 05:21:42;;;;;;;14.88;10.02;;;;;;;-2.16;95.55;102647.91;4803215;29;20503;-80
2021/12/22 05:24:07;;;;;;;14.82;9.63;;;;;;;-2.15;95.61;102657.56;4804407;29;20183;-82
2021/12/22 05:26:33;;;;;;;15.75;9.60;;;;;;;-2.09;95.85;102660.47;4804396;29;20196;-80
2021/12/22 05:28:58;;;;;;;15.90;9.80;;;;;;;-2.12;95.33;102662.03;4804571;29;20176;-81
2021/12/22 05:31:24;;;;;;;15.85;10.10;;;;;;;-2.11;95.87;102648.09;4804486;29;20188;-82
2021/12/22 05:33:50;;;;;;;19.70;10.65;;;;;;;-2.12;95.51;102652.47;4803395;29;20264;-81
2021/12/22 05:36:16;;;;;;;18.75;11.10;;;;;;;-2.17;95.21;102655.69;4818446;29;20255;-80
2021/12/22 05:38:41;;;;;;;16.98;10.43;;;;;;;-2.11;95.92;102654.25;4818121;29;20216;-80
2021/12/22 05:41:07;;;;;;;16.52;10.60;;;;;;;-2.20;95.82;102659.09;4833720;29;20200;-81
2021/12/22 05:43:33;;;;;;;16.50;10.77;;;;;;;-2.16;95.95;102654.91;4833904;29;20199;-81
2021/12/22 05:45:59;;;;;;;16.38;10.52;;;;;;;-2.23;95.89;102640.59;4803375;29;20172;-81
2021/12/22 05:48:25;;;;;;;16.10;10.15;;;;;;;-2.23;95.92;102637.97;4817909;29;20588;-82
2021/12/22 05:50:52;;;;;;;15.48;10.07;;;;;;;-2.12;96.29;102648.91;4804136;29;20265;-81
2021/12/22 05:53:18;;;;;;;13.52;10.43;;;;;;;-2.08;95.84;102646.50;4804079;29;20198;-81
2021/12/22 05:55:44;;;;;;;13.82;9.57;;;;;;;-2.08;96.04;102641.25;4802550;29;20286;-80
2021/12/22 05:58:09;;;;;;;14.57;10.15;;;;;;;-2.03;95.92;102643.16;4803597;29;20291;-81
2021/12/22 06:00:36;;;;;;;13.98;10.68;;;;;;;-2.17;95.81;102643.47;4802742;29;20652;-82
2021/12/22 06:03:01;;;;;;;15.93;10.95;;;;;;;-2.12;95.87;102639.34;4805792;29;20547;-81
2021/12/22 06:05:26;;;;;;;16.45;9.93;;;;;;;-2.12;95.98;102639.34;4805852;29;20180;-80
2021/12/22 06:07:52;;;;;;;16.23;10.93;;;;;;;-2.13;95.27;102628.75;4820469;29;20184;-82
2021/12/22 06:10:17;;;;;;;14.90;9.75;;;;;;;-2.14;95.47;102647.97;4804580;29;20200;-81
2021/12/22 06:12:43;;;;;;;16.67;10.40;;;;;;;-2.08;95.84;102640.34;4833530;29;20181;-81
2021/12/22 06:15:08;;;;;;;15.02;10.25;;;;;;;-2.18;95.81;102636.44;4804716;29;20250;-82
2021/12/22 06:17:34;;;;;;;15.25;10.15;;;;;;;-2.13;95.98;102631.38;4803463;29;20188;-81
2021/12/22 06:20:00;;;;;;;15.77;10.23;;;;;;;-2.14;95.14;102635.75;4833852;29;20204;-81
2021/12/22 06:22:27;;;;;;;15.95;10.00;;;;;;;-2.28;95.17;102634.22;4804758;29;20177;-81
2021/12/22 06:24:52;;;;;;;16.15;9.48;;;;;;;-2.29;95.85;102620.22;4834157;29;20192;-81
2021/12/22 06:27:18;;;;;;;16.38;10.50;;;;;;;-2.28;94.97;102631.59;4787778;29;20244;-81
2021/12/22 06:29:43;;;;;;;18.48;9.27;;;;;;;-2.23;95.38;102627.47;4802462;29;20293;-82
2021/12/22 06:32:09;;;;;;;15.80;9.93;;;;;;;-2.25;95.56;102625.59;4835884;29;20204;-82
2021/12/22 06:34:34;;;;;;;13.23;10.18;;;;;;;-2.20;95.48;102631.97;4836139;29;20186;-81
2021/12/22 06:36:59;;;;;;;11.95;9.38;;;;;;;-2.21;95.52;102625.78;4806240;29;20179;-82
2021/12/22 06:39:25;;;;;;;14.93;9.75;;;;;;;-2.19;95.41;102621.50;4791629;29;20294;-81
2021/12/22 06:41:51;;;;;;;14.57;9.95;;;;;;;-2.14;95.49;102627.88;4790643;29;20196;-81
2021/12/22 06:44:16;;;;;;;18.15;10.88;;;;;;;-2.23;95.34;102635.34;4741709;30;20206;-81
2021/12/22 06:46:43;;;;;;;14.63;9.30;;;;;;;-2.14;95.36;102642.72;4757528;30;20194;-81
2021/12/22 06:49:10;;;;;;;16.00;10.63;;;;;;;-2.20;95.74;102631.97;4756908;30;20246;-81
2021/12/22 06:51:36;;;;;;;12.10;9.60;;;;;;;-2.21;95.69;102636.28;4756871;30;20622;-81
2021/12/22 06:54:02;;;;;;;13.98;10.20;;;;;;;-2.21;95.09;102638.91;4753011;30;20182;-81
2021/12/22 06:56:28;;;;;;;14.90;9.60;;;;;;;-2.16;95.19;102639.13;4767487;30;20655;-81
2021/12/22 06:58:54;;;;;;;16.70;10.38;;;;;;;-2.18;95.19;102636.44;4759309;30;20216;-81
2021/12/22 07:01:21;;;;;;;16.50;10.15;;;;;;;-2.25;95.62;102639.63;4771328;30;20189;-81
2021/12/22 07:03:46;;;;;;;15.43;10.00;;;;;;;-2.21;95.78;102631.03;4771655;30;20177;-81
2021/12/22 07:06:12;;;;;;;14.85;10.38;;;;;;;-2.15;95.42;102633.94;4770410;29;20268;-81
2021/12/22 07:08:37;;;;;;;15.10;10.02;;;;;;;-2.17;95.68;102630.34;4769613;30;20505;-81
2021/12/22 07:11:03;;;;;;;16.48;9.88;;;;;;;-2.23;95.53;102616.97;4769878;30;20209;-81
2021/12/22 07:13:30;;;;;;;14.88;10.00;;;;;;;-2.26;95.47;102634.31;4785344;30;20213;-81
2021/12/22 07:15:55;;;;;;;13.32;9.52;;;;;;;-2.18;95.24;102625.03;4774844;30;20178;-81
2021/12/22 07:18:21;;;;;;;15.82;9.35;;;;;;;-2.20;95.86;102631.97;4789337;30;20217;-81
2021/12/22 07:20:46;;;;;;;13.65;9.90;;;;;;;-2.20;95.96;102624.97;4802162;29;20209;-81
2021/12/22 07:23:12;;;;;;;15.40;10.07;;;;;;;-2.16;95.74;102621.66;4772615;30;20677;-82
2021/12/22 07:25:38;;;;;;;12.85;9.23;;;;;;;-2.09;95.53;102638.56;4785262;29;20178;-81
2021/12/22 07:28:04;;;;;;;18.75;10.23;;;;;;;-2.09;95.13;102638.56;4789234;30;20201;-81
2021/12/22 07:30:29;;;;;;;11.00;9.05;;;;;;;-2.07;95.58;102629.03;4784974;29;20208;-81
2021/12/22 07:32:55;;;;;;;15.05;9.18;;;;;;;-2.03;95.27;102630.94;4770191;30;20185;-81
2021/12/22 07:35:27;;;;;;;13.55;9.02;;;;;;;-2.07;95.14;102629.03;4770986;30;20231;-80
2021/12/22 07:38:34;;;;;;;15.15;9.85;;;;;;;-2.05;95.51;102637.88;4784717;30;20200;-82
2021/12/22 07:41:01;;;;;;;17.20;9.68;;;;;;;-2.04;95.10;102639.66;4768220;30;20220;-81
2021/12/22 07:43:27;;;;;;;14.63;9.25;;;;;;;-2.03;95.57;102641.44;4769199;30;20185;-80
2021/12/22 07:45:53;;;;;;;15.00;9.07;;;;;;;-2.08;95.15;102628.13;4766033;30;20269;-81
2021/12/22 07:48:19;;;;;;;14.20;9.20;;;;;;;-2.11;95.06;102640.22;4774626;30;20210;-81
2021/12/22 07:50:45;;;;;;;13.50;8.90;;;;;;;-2.02;95.40;102644.97;4774917;30;20597;-81
2021/12/22 07:53:11;;;;;;;12.85;8.90;;;;;;;-1.94;95.45;102646.19;4775140;30;20258;-81
2021/12/22 07:55:36;;;;;;;14.57;9.00;;;;;;;-2.00;95.59;102640.69;4774729;30;20180;-81
2021/12/22 07:58:03;;;;;;;15.07;9.13;;;;;;;-1.95;94.86;102644.38;4790440;30;20209;-81
2021/12/22 08:00:29;;;;;;;13.68;9.20;;;;;;;-1.92;94.87;102645.44;4768272;29;20213;-81
2021/12/22 08:02:55;;;;;;;11.45;8.43;;;;;;;-1.91;95.68;102648.94;4753254;30;20200;-81
2021/12/22 08:05:20;;;;;;;13.95;8.82;;;;;;;-1.90;95.37;102658.63;4783617;30;20182;-81
2021/12/22 08:07:46;;;;;;;15.02;9.52;;;;;;;-1.89;94.81;102661.31;4782471;30;20221;-81
2021/12/22 08:10:11;;;;;;;15.73;9.07;;;;;;;-1.83;94.34;102650.16;4752995;30;20556;-81
2021/12/22 08:12:37;;;;;;;17.17;9.55;;;;;;;-1.88;94.71;102651.69;4768389;30;20276;-81
2021/12/22 08:15:04;;;;;;;13.57;8.68;;;;;;;-1.90;94.46;102646.38;4754305;30;20195;-80
2021/12/22 08:17:32;;;;;;;14.32;8.52;;;;;;;-1.80;94.99;102650.28;4769448;30;20666;-82
2021/12/22 08:19:58;;;;;;;12.63;8.30;;;;;;;-1.81;94.65;102640.63;4769092;30;20252;-82
2021/12/22 08:22:24;;;;;;;13.32;9.27;;;;;;;-1.81;94.98;102639.72;4791075;29;20267;-81
2021/12/22 08:24:50;;;;;;;15.13;11.50;;;;;;;-1.82;94.87;102638.81;4772651;30;20201;-82
2021/12/22 08:27:21;;;;;;;16.17;11.38;;;;;;;-1.74;95.30;102644.41;4786418;30;20189;-82
2021/12/22 08:29:47;;;;;;;12.63;9.07;;;;;;;-1.68;95.05;102653.44;4788920;29;20192;-81
2021/12/22 08:32:13;;;;;;;15.98;10.25;;;;;;;-1.71;94.95;102648.03;4758426;30;20185;-81
2021/12/22 08:34:41;;;;;;;13.30;9.27;;;;;;;-1.87;94.95;102638.63;4788501;30;20655;-81
2021/12/22 08:39:53;;;;;;;15.23;9.77;;;;;;;-1.88;94.51;102641.19;4787540;30;20232;-82
2021/12/22 08:42:19;;;;;;;15.38;9.88;;;;;;;-1.92;95.17;102629.66;4775083;30;20698;-84
2021/12/22 08:44:45;;;;;;;13.65;10.13;;;;;;;-1.86;95.09;102636.88;4774808;30;20208;-81
2021/12/22 08:47:10;;;;;;;14.18;10.07;;;;;;;-1.76;94.81;102641.69;4774230;30;20189;-81
2021/12/22 08:49:36;;;;;;;13.63;9.60;;;;;;;-1.76;95.28;102636.44;4772211;30;20200;-81
2021/12/22 08:52:03;;;;;;;18.92;10.15;;;;;;;-1.74;94.85;102637.41;4786727;30;20191;-82
2021/12/22 08:54:29;;;;;;;13.60;10.27;;;;;;;-1.80;94.77;102629.25;4787887;29;20181;-83
2021/12/22 08:56:55;;;;;;;16.35;10.27;;;;;;;-1.85;94.65;102633.44;4771219;30;20595;-82
2021/12/22 08:59:22;;;;;;;17.02;9.93;;;;;;;-1.79;95.08;102630.16;4771709;30;20580;-82
2021/12/22 09:01:49;;;;;;;13.55;8.98;;;;;;;-1.79;95.29;102627.53;4786823;30;20211;-81
2021/12/22 09:04:14;;;;;;;13.52;9.52;;;;;;;-1.74;95.17;102634.78;4772846;30;20199;-82
2021/12/22 09:06:40;;;;;;;18.15;9.98;;;;;;;-1.76;95.01;102631.19;4784533;29;20858;-82
2021/12/22 09:09:07;;;;;;;15.95;9.75;;;;;;;-1.71;94.90;102640.16;4801736;29;20184;-82
2021/12/22 09:11:33;;;;;;;15.10;9.73;;;;;;;-1.70;94.69;102639.34;4791120;30;20247;-81
2021/12/22 09:13:58;;;;;;;13.35;9.63;;;;;;;-1.75;94.96;102625.13;4791486;30;20835;-81
2021/12/22 09:16:23;;;;;;;13.30;10.07;;;;;;;-1.59;94.38;102631.00;4790625;30;20189;-81
2021/12/22 09:18:49;;;;;;;13.23;9.07;;;;;;;-1.61;94.74;102636.19;4787297;30;20209;-80
2021/12/22 09:21:16;;;;;;;13.70;9.70;;;;;;;-1.69;95.03;102633.22;4787110;30;20196;-81
2021/12/22 09:23:42;;;;;;;14.73;9.95;;;;;;;-1.67;94.51;102631.56;4800466;29;20181;-81
2021/12/22 09:26:08;;;;;;;16.15;10.20;;;;;;;-1.74;94.13;102639.16;4799935;29;20189;-81
2021/12/22 09:28:34;;;;;;;18.80;10.45;;;;;;;-1.77;94.55;102634.66;4769661;30;20180;-82
2021/12/22 09:30:59;;;;;;;16.55;9.75;;;;;;;-1.71;94.39;102639.25;4769436;30;20221;-81
2021/12/22 09:33:27;;;;;;;14.05;8.75;;;;;;;-1.75;93.94;102635.63;4801391;29;20181;-81
2021/12/22 09:35:54;;;;;;;15.60;10.00;;;;;;;-1.79;93.56;102636.34;4761755;30;20192;-82
2021/12/22 09:38:21;;;;;;;15.10;10.68;;;;;;;-1.75;93.89;102630.38;4786311;30;20274;-82
2021/12/22 09:40:48;;;;;;;18.48;12.35;;;;;;;-1.77;94.18;102634.66;4788144;29;20220;-81
2021/12/22 09:43:13;;;;;;;15.35;10.38;;;;;;;-1.62;93.96;102649.25;4784472;29;20207;-81
2021/12/22 09:45:44;;;;;;;20.20;12.23;;;;;;;-1.70;93.82;102641.97;4773591;30;20181;-81
2021/12/22 09:53:22;;;;;;;14.07;9.20;;;;;;;-1.69;93.24;102651.63;4786844;29;20193;-81
2021/12/22 09:55:50;;;;;;;17.83;10.07;;;;;;;-1.76;93.84;102644.31;4772524;30;20180;-81
2021/12/22 09:58:16;;;;;;;14.07;9.02;;;;;;;-1.58;93.36;102648.56;4787570;30;20739;-81
2021/12/22 10:00:44;;;;;;;12.63;9.43;;;;;;;-1.70;92.50;102643.69;4787684;29;20205;-81
2021/12/22 10:03:11;;;;;;;14.30;9.18;;;;;;;-1.60;92.72;102653.72;4787979;30;20544;-80
2021/12/22 10:05:38;;;;;;;15.15;10.70;;;;;;;-1.65;92.74;102644.78;4787385;29;20251;-79
2021/12/22 10:08:09;;;;;;;15.10;10.32;;;;;;;-1.75;92.91;102650.47;4773282;30;20253;-81
2021/12/22 10:10:37;;;;;;;14.88;9.73;;;;;;;-1.80;93.05;102642.41;4791626;29;20196;-80
2021/12/22 10:13:10;;;;;;;15.00;10.05;;;;;;;-1.77;92.67;102639.00;4793949;30;20193;-80
2021/12/22 10:15:37;;;;;;;16.23;10.80;;;;;;;-1.80;92.69;102638.88;4777644;29;20522;-83
2021/12/22 10:18:14;;;;;;;14.98;9.57;;;;;;;-1.74;92.84;102623.38;4789531;30;20179;-83
2021/12/22 10:20:40;;;;;;;16.05;10.02;;;;;;;-1.78;92.41;102627.59;4787692;30;20241;-83
2021/12/22 10:23:27;;;;;;;16.30;9.90;;;;;;;-1.79;92.29;102625.81;4789316;30;20192;-82
2021/12/22 10:25:59;;;;;;;14.63;9.40;;;;;;;-1.70;92.33;102623.56;4773336;30;20242;-84
2021/12/22 10:28:28;;;;;;;15.23;10.18;;;;;;;-1.72;92.45;102633.13;4773341;30;20173;-83
2021/12/22 10:30:58;;;;;;;16.13;10.05;;;;;;;-1.56;92.13;102616.22;4772810;30;20284;-82
2021/12/22 10:33:28;;;;;;;16.00;9.70;;;;;;;-1.54;92.10;102627.72;4790882;30;20237;-80
2021/12/22 10:35:56;;;;;;;13.38;10.00;;;;;;;-1.60;91.90;102624.81;4776752;30;20193;-80
2021/12/22 10:38:25;;;;;;;13.38;9.68;;;;;;;-1.61;91.94;102628.31;4791235;30;20613;-80
2021/12/22 10:40:53;;;;;;;14.50;9.98;;;;;;;-1.70;91.89;102615.69;4776233;30;20200;-81
2021/12/22 10:43:20;;;;;;;15.57;9.75;;;;;;;-1.69;91.65;102611.31;4793742;29;20192;-81
2021/12/22 10:45:50;;;;;;;15.07;9.90;;;;;;;-1.76;92.20;102604.91;4794475;29;20568;-81
2021/12/22 10:51:05;;;;;;;15.85;10.77;;;;;;;-1.65;91.67;102610.63;4793879;30;20201;-81
2021/12/22 10:53:30;;;;;;;13.25;9.60;;;;;;;-1.67;91.29;102605.28;4792293;30;20185;-81
2021/12/22 10:55:57;;;;;;;13.48;9.45;;;;;;;-1.75;91.17;102598.84;4791197;30;20172;-81
2021/12/22 10:58:29;;;;;;;17.45;10.15;;;;;;;-1.67;91.68;102594.78;4789899;29;20257;-81
2021/12/22 11:01:11;;;;;;;13.75;9.52;;;;;;;-1.62;91.89;102591.44;4789612;29;20200;-82
2021/12/22 11:03:53;;;;;;;14.77;9.82;;;;;;;-1.53;91.21;102594.44;4787963;29;20204;-82
2021/12/22 11:06:30;;;;;;;15.80;10.52;;;;;;;-1.56;90.61;102591.69;4788149;30;20269;-82
2021/12/22 11:09:13;;;;;;;16.50;10.52;;;;;;;-1.66;90.33;102586.06;4773400;29;20176;-83
2021/12/22 11:11:44;;;;;;;17.00;11.32;;;;;;;-1.61;90.81;102593.25;4773271;30;20243;-82
2021/12/22 11:14:12;;;;;;;14.15;10.63;;;;;;;-1.66;91.43;102591.31;4788841;30;20181;-83
2021/12/22 11:17:07;;;;;;;14.80;9.73;;;;;;;-1.64;90.87;102599.28;4772124;29;20192;-83
2021/12/22 11:19:34;;;;;;;14.82;10.13;;;;;;;-1.62;91.42;102604.56;4787723;29;20289;-83
2021/12/22 11:22:14;;;;;;;15.65;9.50;;;;;;;-1.56;91.06;102608.34;4787878;29;20195;-83
2021/12/22 11:24:49;;;;;;;17.27;11.18;;;;;;;-1.55;90.95;102604.91;4788555;30;20229;-84
2021/12/22 11:27:20;;;;;;;18.58;11.18;;;;;;;-1.62;91.27;102599.31;4772802;30;20168;-83
2021/12/22 11:29:49;;;;;;;16.27;11.25;;;;;;;-1.68;91.15;102590.38;4774123;30;20208;-81
2021/12/22 11:32:17;;;;;;;21.15;11.35;;;;;;;-1.59;91.69;102583.69;4773377;29;20185;-84
2021/12/22 11:34:50;;;;;;;17.25;11.48;;;;;;;-1.50;92.21;102587.56;4772415;29;20187;-83